sensor_id;sensor_type;location;lat;lon;timestamp;pressure;altitude;pressure_sealevel;temperature;humidity
57894;BME280;43710;47.460;19.034;2023-02-14T05:03:03;102203.22;;;4.11;80.30
57894;BME280;43710;47.460;19.034;2023-02-14T05:06:05;102203.22;;;4.11;80.30
57894;BME280;43710;47.460;19.034;2023-02-14T05:09:08;102205.84;;;3.62;81.94
57894;BME280;43710;47.460;19.034;2023-02-14T05:12:10;102207.84;;;3.60;78.74
57894;BME280;43710;47.460;19.034;2023-02-14T05:15:13;102205.53;;;3.71;78.59
57894;BME280;43710;47.460;19.034;2023-02-14T05:18:15;102209.72;;;3.87;83.92
57894;BME280;43710;47.460;19.034;2023-02-14T05:21:17;102204.72;;;3.99;78.37
57894;BME280;43710;47.460;19.034;2023-02-14T05:24:20;102209.84;;;4.00;83.68
57894;BME280;43710;47.460;19.034;2023-02-14T05:27:22;102214.72;;;3.97;77.87
57894;BME280;43710;47.460;19.034;2023-02-14T05:30:24;102211.78;;;4.13;77.28
57894;BME280;43710;47.460;19.034;2023-02-14T05:33:29;102206.41;;;4.28;77.48
57894;BME280;43710;47.460;19.034;2023-02-14T05:36:31;102211.53;;;4.36;77.34
57894;BME280;43710;47.460;19.034;2023-02-14T05:39:33;102207.91;;;4.37;76.60
57894;BME280;43710;47.460;19.034;2023-02-14T05:42:36;102211.97;;;4.40;77.76
57894;BME280;43710;47.460;19.034;2023-02-14T05:45:38;102212.44;;;4.50;77.19
57894;BME280;43710;47.460;19.034;2023-02-14T05:48:40;102216.59;;;4.59;75.71
57894;BME280;43710;47.460;19.034;2023-02-14T05:51:43;102221.09;;;4.59;76.35
57894;BME280;43710;47.460;19.034;2023-02-14T05:54:47;102217.03;;;4.63;75.36
57894;BME280;43710;47.460;19.034;2023-02-14T05:57:49;102215.94;;;4.51;79.52
57894;BME280;43710;47.460;19.034;2023-02-14T06:00:51;102226.66;;;4.36;76.57
57894;BME280;43710;47.460;19.034;2023-02-14T06:03:54;102226.87;;;4.34;81.57
57894;BME280;43710;47.460;19.034;2023-02-14T06:06:56;102234.56;;;4.29;92.59
57894;BME280;43710;47.460;19.034;2023-02-14T06:09:59;102237.37;;;4.21;78.77
57894;BME280;43710;47.460;19.034;2023-02-14T06:13:01;102232.09;;;3.99;82.78
57894;BME280;43710;47.460;19.034;2023-02-14T06:16:04;102239.66;;;4.03;94.67
57894;BME280;43710;47.460;19.034;2023-02-14T06:19:06;102229.63;;;3.76;79.66
57894;BME280;43710;47.460;19.034;2023-02-14T06:22:08;102247.13;;;3.92;78.52
57894;BME280;43710;47.460;19.034;2023-02-14T06:25:11;102245.22;;;3.86;82.27
57894;BME280;43710;47.460;19.034;2023-02-14T06:28:13;102250.81;;;3.91;81.30
57894;BME280;43710;47.460;19.034;2023-02-14T06:31:16;102251.34;;;3.87;78.11
57894;BME280;43710;47.460;19.034;2023-02-14T06:34:19;102268.59;;;3.76;78.49
57894;BME280;43710;47.460;19.034;2023-02-14T06:37:21;102268.62;;;3.97;79.90
57894;BME280;43710;47.460;19.034;2023-02-14T06:40:23;102264.13;;;3.76;78.69
57894;BME280;43710;47.460;19.034;2023-02-14T06:43:25;102267.28;;;3.87;79.54
57894;BME280;43710;47.460;19.034;2023-02-14T06:46:28;102284.28;;;3.92;89.60
57894;BME280;43710;47.460;19.034;2023-02-14T06:49:30;102284.22;;;3.86;79.57
57894;BME280;43710;47.460;19.034;2023-02-14T06:52:32;102277.97;;;3.93;77.86
57894;BME280;43710;47.460;19.034;2023-02-14T06:55:35;102281.69;;;3.99;87.78
57894;BME280;43710;47.460;19.034;2023-02-14T06:58:37;102295.16;;;3.97;79.22
57894;BME280;43710;47.460;19.034;2023-02-14T07:01:39;102294.97;;;3.99;78.55
57894;BME280;43710;47.460;19.034;2023-02-14T07:04:41;102282.94;;;4.03;78.50
57894;BME280;43710;47.460;19.034;2023-02-14T07:07:44;102290.22;;;4.16;80.63
57894;BME280;43710;47.460;19.034;2023-02-14T07:10:47;102286.19;;;4.48;96.86
57894;BME280;43710;47.460;19.034;2023-02-14T07:13:50;102288.47;;;4.51;85.52
57894;BME280;43710;47.460;19.034;2023-02-14T07:16:53;102288.97;;;4.61;88.46
57894;BME280;43710;47.460;19.034;2023-02-14T07:19:56;102290.69;;;4.76;92.22
57894;BME280;43710;47.460;19.034;2023-02-14T07:22:58;102283.72;;;5.09;95.98
57894;BME280;43710;47.460;19.034;2023-02-14T07:26:01;102292.03;;;6.22;100.00
57894;BME280;43710;47.460;19.034;2023-02-14T07:29:04;102293.69;;;6.76;100.00
57894;BME280;43710;47.460;19.034;2023-02-14T07:32:06;102291.09;;;7.15;100.00
57894;BME280;43710;47.460;19.034;2023-02-14T07:35:08;102304.91;;;6.85;82.74
57894;BME280;43710;47.460;19.034;2023-02-14T07:38:11;102300.72;;;7.29;100.00
57894;BME280;43710;47.460;19.034;2023-02-14T07:41:13;102301.53;;;7.68;100.00
57894;BME280;43710;47.460;19.034;2023-02-14T07:44:15;102304.37;;;7.80;97.83
57894;BME280;43710;47.460;19.034;2023-02-14T07:47:18;102307.25;;;7.40;78.63
57894;BME280;43710;47.460;19.034;2023-02-14T07:50:21;102310.38;;;7.23;87.99
57894;BME280;43710;47.460;19.034;2023-02-14T07:53:24;102313.31;;;7.09;90.43
57894;BME280;43710;47.460;19.034;2023-02-14T07:56:26;102314.72;;;7.11;79.40
57894;BME280;43710;47.460;19.034;2023-02-14T07:59:29;102319.19;;;7.24;87.63
57894;BME280;43710;47.460;19.034;2023-02-14T08:02:31;102320.47;;;7.01;75.13
57894;BME280;43710;47.460;19.034;2023-02-14T08:05:34;102317.63;;;7.03;78.03
57894;BME280;43710;47.460;19.034;2023-02-14T08:08:36;102318.88;;;6.74;74.56
57894;BME280;43710;47.460;19.034;2023-02-14T08:11:39;102320.09;;;6.91;87.43
57894;BME280;43710;47.460;19.034;2023-02-14T08:15:00;102311.94;;;6.73;73.03
57894;BME280;43710;47.460;19.034;2023-02-14T08:18:22;102307.03;;;6.50;72.69
57894;BME280;43710;47.460;19.034;2023-02-14T08:21:24;102314.59;;;6.73;92.18
57894;BME280;43710;47.460;19.034;2023-02-14T08:24:27;102306.00;;;6.57;82.02
57894;BME280;43710;47.460;19.034;2023-02-14T08:27:29;102311.31;;;6.77;88.85
57894;BME280;43710;47.460;19.034;2023-02-14T08:30:34;102308.63;;;6.77;88.40
57894;BME280;43710;47.460;19.034;2023-02-14T08:33:36;102315.81;;;6.77;81.39
57894;BME280;43710;47.460;19.034;2023-02-14T08:36:39;102310.84;;;7.07;76.94
57894;BME280;43710;47.460;19.034;2023-02-14T08:39:41;102313.84;;;7.24;76.83
57894;BME280;43710;47.460;19.034;2023-02-14T08:42:44;102314.34;;;7.59;87.80
57894;BME280;43710;47.460;19.034;2023-02-14T08:45:46;102314.75;;;7.56;70.80
57894;BME280;43710;47.460;19.034;2023-02-14T08:48:49;102316.25;;;7.45;68.55
57894;BME280;43710;47.460;19.034;2023-02-14T08:51:52;102316.81;;;7.54;67.77
57894;BME280;43710;47.460;19.034;2023-02-14T08:54:56;102308.22;;;7.52;67.45
57894;BME280;43710;47.460;19.034;2023-02-14T08:57:59;102317.63;;;7.54;66.79
57894;BME280;43710;47.460;19.034;2023-02-14T09:01:07;102316.81;;;7.54;66.67
57894;BME280;43710;47.460;19.034;2023-02-14T09:04:09;102313.34;;;7.47;66.91
57894;BME280;43710;47.460;19.034;2023-02-14T09:07:12;102320.12;;;7.49;67.00
57894;BME280;43710;47.460;19.034;2023-02-14T09:10:15;102314.44;;;7.39;66.52
57894;BME280;43710;47.460;19.034;2023-02-14T09:13:19;102313.53;;;7.59;66.18
57894;BME280;43710;47.460;19.034;2023-02-14T09:16:23;102315.56;;;7.63;65.21
57894;BME280;43710;47.460;19.034;2023-02-14T09:19:26;102302.53;;;7.42;66.58
57894;BME280;43710;47.460;19.034;2023-02-14T09:22:28;102302.94;;;7.39;66.78
57894;BME280;43710;47.460;19.034;2023-02-14T09:25:30;102317.00;;;7.59;66.52
57894;BME280;43710;47.460;19.034;2023-02-14T09:28:34;102310.41;;;7.68;65.98
57894;BME280;43710;47.460;19.034;2023-02-14T09:31:38;102309.53;;;7.74;65.38
57894;BME280;43710;47.460;19.034;2023-02-14T09:34:41;102312.97;;;7.88;65.76
57894;BME280;43710;47.460;19.034;2023-02-14T09:38:03;102312.91;;;7.95;64.01
57894;BME280;43710;47.460;19.034;2023-02-14T09:41:07;102315.88;;;8.12;63.29
57894;BME280;43710;47.460;19.034;2023-02-14T09:53:50;102322.47;;;8.34;63.02
57894;BME280;43710;47.460;19.034;2023-02-14T09:57:20;102324.06;;;8.49;61.76
57894;BME280;43710;47.460;19.034;2023-02-14T10:00:47;102323.25;;;8.48;61.28
57894;BME280;43710;47.460;19.034;2023-02-14T10:04:09;102320.72;;;8.53;61.03
57894;BME280;43710;47.460;19.034;2023-02-14T10:10:41;102318.78;;;8.35;66.50
57894;BME280;43710;47.460;19.034;2023-02-14T10:13:53;102319.78;;;8.66;71.52
57894;BME280;43710;47.460;19.034;2023-02-14T10:20:14;102311.16;;;8.89;79.22
57894;BME280;43710;47.460;19.034;2023-02-14T10:26:38;102310.94;;;9.09;71.14
57894;BME280;43710;47.460;19.034;2023-02-14T10:29:42;102302.69;;;9.29;79.73
57894;BME280;43710;47.460;19.034;2023-02-14T10:33:07;102301.69;;;9.23;77.86
57894;BME280;43710;47.460;19.034;2023-02-14T10:39:43;102299.84;;;9.42;76.11
57894;BME280;43710;47.460;19.034;2023-02-14T10:46:39;102301.94;;;9.22;63.86
57894;BME280;43710;47.460;19.034;2023-02-14T10:56:42;102280.91;;;8.88;58.69
57894;BME280;43710;47.460;19.034;2023-02-14T11:00:16;102280.91;;;9.07;69.25
57894;BME280;43710;47.460;19.034;2023-02-14T11:03:15;102280.81;;;9.32;74.27
57894;BME280;43710;47.460;19.034;2023-02-14T11:06:18;102268.53;;;9.43;61.24
57894;BME280;43710;47.460;19.034;2023-02-14T11:09:21;102263.87;;;9.38;62.07
57894;BME280;43710;47.460;19.034;2023-02-14T11:12:36;102260.75;;;9.23;58.34
57894;BME280;43710;47.460;19.034;2023-02-14T11:15:39;102272.72;;;9.38;70.57
57894;BME280;43710;47.460;19.034;2023-02-14T11:18:42;102279.19;;;9.12;57.59
57894;BME280;43710;47.460;19.034;2023-02-14T11:21:47;102274.09;;;9.11;67.28
57894;BME280;43710;47.460;19.034;2023-02-14T11:25:02;102265.16;;;8.99;59.50
57894;BME280;43710;47.460;19.034;2023-02-14T11:28:12;102263.78;;;9.26;65.52
57894;BME280;43710;47.460;19.034;2023-02-14T11:31:32;102269.16;;;9.56;67.56
57894;BME280;43710;47.460;19.034;2023-02-14T11:34:36;102261.94;;;9.27;56.39
57894;BME280;43710;47.460;19.034;2023-02-14T11:37:51;102263.00;;;9.07;57.23
57894;BME280;43710;47.460;19.034;2023-02-14T11:40:56;102266.28;;;8.91;57.32
57894;BME280;43710;47.460;19.034;2023-02-14T11:44:14;102277.03;;;9.21;71.63
57894;BME280;43710;47.460;19.034;2023-02-14T11:47:28;102252.16;;;9.51;62.79
57894;BME280;43710;47.460;19.034;2023-02-14T11:50:31;102264.00;;;9.43;68.75
57894;BME280;43710;47.460;19.034;2023-02-14T11:53:46;102256.53;;;9.75;67.03
57894;BME280;43710;47.460;19.034;2023-02-14T11:56:54;102253.06;;;9.86;65.40
57894;BME280;43710;47.460;19.034;2023-02-14T12:00:00;102255.66;;;9.93;59.66
57894;BME280;43710;47.460;19.034;2023-02-14T12:03:16;102251.44;;;9.85;67.91
57894;BME280;43710;47.460;19.034;2023-02-14T12:06:25;102259.06;;;10.12;74.45
57894;BME280;43710;47.460;19.034;2023-02-14T12:09:29;102251.44;;;10.27;74.77
57894;BME280;43710;47.460;19.034;2023-02-14T12:12:33;102250.97;;;10.30;64.30
57894;BME280;43710;47.460;19.034;2023-02-14T12:15:51;102256.91;;;10.32;56.52
57894;BME280;43710;47.460;19.034;2023-02-14T12:19:04;102249.47;;;10.46;66.65
57894;BME280;43710;47.460;19.034;2023-02-14T12:22:12;102246.38;;;10.19;58.88
57894;BME280;43710;47.460;19.034;2023-02-14T12:25:24;102238.34;;;10.19;55.91
57894;BME280;43710;47.460;19.034;2023-02-14T12:28:38;102234.13;;;10.11;57.16
57894;BME280;43710;47.460;19.034;2023-02-14T12:31:43;102233.53;;;10.09;54.85
57894;BME280;43710;47.460;19.034;2023-02-14T12:34:48;102220.16;;;9.98;56.08
57894;BME280;43710;47.460;19.034;2023-02-14T12:58:01;102215.25;;;9.53;53.92
57894;BME280;43710;47.460;19.034;2023-02-14T13:08:14;102197.13;;;9.67;53.27
57894;BME280;43710;47.460;19.034;2023-02-14T13:12:37;102209.06;;;10.06;66.34
57894;BME280;43710;47.460;19.034;2023-02-14T13:15:20;102200.13;;;10.12;61.79
57894;BME280;43710;47.460;19.034;2023-02-14T13:19:05;102199.75;;;10.08;62.69
57894;BME280;43710;47.460;19.034;2023-02-14T13:22:16;102201.62;;;10.08;55.62
57894;BME280;43710;47.460;19.034;2023-02-14T13:25:35;102193.63;;;10.31;56.56
57894;BME280;43710;47.460;19.034;2023-02-14T13:28:49;102199.75;;;10.08;67.21
57894;BME280;43710;47.460;19.034;2023-02-14T13:31:59;102192.47;;;10.27;77.84
57894;BME280;43710;47.460;19.034;2023-02-14T13:35:04;102202.13;;;10.40;71.52
57894;BME280;43710;47.460;19.034;2023-02-14T13:38:13;102196.75;;;10.17;53.72
57894;BME280;43710;47.460;19.034;2023-02-14T13:41:17;102192.19;;;10.05;53.92
57894;BME280;43710;47.460;19.034;2023-02-14T13:44:48;102184.97;;;10.06;55.99
57894;BME280;43710;47.460;19.034;2023-02-14T13:48:11;102187.88;;;10.04;65.39
57894;BME280;43710;47.460;19.034;2023-02-14T13:51:14;102189.97;;;10.02;55.42
57894;BME280;43710;47.460;19.034;2023-02-14T13:54:30;102188.00;;;9.98;54.63
57894;BME280;43710;47.460;19.034;2023-02-14T13:57:36;102181.94;;;9.91;54.46
57894;BME280;43710;47.460;19.034;2023-02-14T14:00:43;102180.41;;;9.95;54.32
57894;BME280;43710;47.460;19.034;2023-02-14T14:03:53;102186.94;;;9.99;55.29
57894;BME280;43710;47.460;19.034;2023-02-14T14:10:09;102183.31;;;9.93;56.44
57894;BME280;43710;47.460;19.034;2023-02-14T14:13:52;102188.00;;;9.98;60.28
57894;BME280;43710;47.460;19.034;2023-02-14T14:16:57;102190.78;;;10.03;56.28
57894;BME280;43710;47.460;19.034;2023-02-14T14:20:02;102190.69;;;9.98;56.35
57894;BME280;43710;47.460;19.034;2023-02-14T14:23:27;102193.22;;;9.93;56.11
57894;BME280;43710;47.460;19.034;2023-02-14T14:26:39;102183.22;;;9.88;59.36
57894;BME280;43710;47.460;19.034;2023-02-14T14:29:49;102192.19;;;9.94;58.31
57894;BME280;43710;47.460;19.034;2023-02-14T14:32:52;102191.94;;;9.95;55.75
57894;BME280;43710;47.460;19.034;2023-02-14T14:35:56;102188.09;;;9.91;55.07
57894;BME280;43710;47.460;19.034;2023-02-14T14:38:59;102185.78;;;9.95;59.53
57894;BME280;43710;47.460;19.034;2023-02-14T14:42:12;102191.94;;;9.95;58.90
57894;BME280;43710;47.460;19.034;2023-02-14T14:45:20;102185.44;;;9.91;68.56
57894;BME280;43710;47.460;19.034;2023-02-14T14:48:37;102177.94;;;9.93;56.25
57894;BME280;43710;47.460;19.034;2023-02-14T14:51:40;102172.97;;;9.97;64.76
57894;BME280;43710;47.460;19.034;2023-02-14T14:54:42;102181.47;;;10.17;70.10
57894;BME280;43710;47.460;19.034;2023-02-14T14:57:52;102183.56;;;10.15;59.99
57894;BME280;43710;47.460;19.034;2023-02-14T15:00:55;102175.87;;;10.07;61.52
57894;BME280;43710;47.460;19.034;2023-02-14T15:07:27;102184.84;;;10.12;68.80
57894;BME280;43710;47.460;19.034;2023-02-14T15:10:33;102182.03;;;9.96;56.59
57894;BME280;43710;47.460;19.034;2023-02-14T15:13:42;102183.31;;;9.93;57.70
57894;BME280;43710;47.460;19.034;2023-02-14T15:17:03;102183.81;;;9.90;60.55
57894;BME280;43710;47.460;19.034;2023-02-14T15:20:29;102178.78;;;9.94;59.98
57894;BME280;43710;47.460;19.034;2023-02-14T15:23:30;102184.47;;;9.85;55.93
57894;BME280;43710;47.460;19.034;2023-02-14T15:26:34;102187.62;;;9.82;58.89
57894;BME280;43710;47.460;19.034;2023-02-14T15:29:36;102185.84;;;9.76;56.67
57894;BME280;43710;47.460;19.034;2023-02-14T15:32:39;102189.25;;;9.83;79.06
57894;BME280;43710;47.460;19.034;2023-02-14T15:35:41;102179.37;;;9.84;69.22
57894;BME280;43710;47.460;19.034;2023-02-14T15:38:45;102189.47;;;9.82;60.74
57894;BME280;43710;47.460;19.034;2023-02-14T15:41:51;102182.16;;;9.77;58.22
57894;BME280;43710;47.460;19.034;2023-02-14T15:48:27;102186.56;;;9.72;61.66
57894;BME280;43710;47.460;19.034;2023-02-14T15:51:32;102179.56;;;9.71;72.40
57894;BME280;43710;47.460;19.034;2023-02-14T15:54:41;102190.38;;;9.64;69.67
57894;BME280;43710;47.460;19.034;2023-02-14T15:57:52;102180.94;;;9.61;58.75
57894;BME280;43710;47.460;19.034;2023-02-14T16:00:56;102181.97;;;9.49;58.96
57894;BME280;43710;47.460;19.034;2023-02-14T16:04:01;102179.84;;;9.39;60.34
57894;BME280;43710;47.460;19.034;2023-02-14T16:07:26;102181.69;;;9.38;59.05
57894;BME280;43710;47.460;19.034;2023-02-14T16:10:32;102196.13;;;9.37;64.58
57894;BME280;43710;47.460;19.034;2023-02-14T16:13:36;102202.59;;;9.30;59.71
57894;BME280;43710;47.460;19.034;2023-02-14T16:16:56;102198.16;;;9.24;70.70
57894;BME280;43710;47.460;19.034;2023-02-14T16:20:27;102200.75;;;9.30;58.38
57894;BME280;43710;47.460;19.034;2023-02-14T16:23:30;102202.13;;;9.21;57.44
57894;BME280;43710;47.460;19.034;2023-02-14T16:26:35;102210.97;;;9.22;57.31
57894;BME280;43710;47.460;19.034;2023-02-14T16:29:39;102208.81;;;9.12;60.20
57894;BME280;43710;47.460;19.034;2023-02-14T16:32:42;102210.63;;;9.30;56.64
57894;BME280;43710;47.460;19.034;2023-02-14T16:35:45;102219.09;;;9.27;62.97
57894;BME280;43710;47.460;19.034;2023-02-14T16:38:48;102224.09;;;9.23;68.52
57894;BME280;43710;47.460;19.034;2023-02-14T16:41:53;102227.38;;;9.25;58.53
57894;BME280;43710;47.460;19.034;2023-02-14T16:44:57;102214.13;;;9.30;56.53
57894;BME280;43710;47.460;19.034;2023-02-14T16:47:59;102224.34;;;9.22;55.98
57894;BME280;43710;47.460;19.034;2023-02-14T16:51:01;102224.88;;;9.12;62.34
57894;BME280;43710;47.460;19.034;2023-02-14T16:54:06;102220.37;;;8.94;70.44
